• Join FlightAware (Why Join?)
  • Login
  • US Flag 
09:05PM EST


 

Airport Tracker/Info


-or-


 

Live Flight TrackerFlight Track Log ✈ RPA4907 ✈ 10-Jul-2013 ✈ KEWR - KBWI

Flight Track Log - Related Links

Times and Time Zones

All times are in EDT time to prevent confusion due to time zone crossing. See the RPA4907 flight status page for this flight to view local times or setup timezone preferences in your user account.

Time Position Orientation Groundspeed Altitude Reporting Facility
EDT Latitude Longitude Course Direction KTS MPH feet Rate Location/Type
12:35PM 40.6833 -74.1833 246° West 151 174 500  Level New York TRACON
12:36PM 40.6333 -74.2000 194° South 216 249 2,100 1,980 Climbing New York TRACON
12:36PM 40.6667 -74.2500 311° West 221 254 4,300 1,860 Climbing New York TRACON
12:38PM 40.5372 -74.6095 245° Southwest  Level FlightAware Approximate
12:38PM 40.7167 -74.3167 315° West 247 284 5,900  Level New York TRACON
12:38PM 40.7667 -74.3667 323° Northwest 260 299 7,500 1,740 Climbing New York TRACON
12:39PM 40.4981 -74.7224 246° West  Level FlightAware Approximate
12:40PM 40.4603 -74.8358 246° West  Level FlightAware Approximate
12:40PM 40.7500 -74.4500 255° West 244 281 9,400  Level New York TRACON
12:41PM 40.7000 -74.5167 225° Southwest 251 289 11,000 1,440 Climbing New York TRACON
12:42PM 40.6344 -74.6158 229° Southwest 253 291 13,200 1,140 Climbing New York Center
12:43PM 40.5800 -74.6894 226° Southwest 253 291 14,000 360 Climbing New York Center
12:44PM 40.5336 -74.7686 232° Southwest 288 331 14,000  Level New York Center
12:45PM 40.4869 -74.8533 234° Southwest 318 366 14,000  Level New York Center
12:46PM 40.4244 -74.9667 234° Southwest 324 373 14,000  Level New York Center
12:47PM 40.3653 -75.0503 227° Southwest 324 373 14,000  Level New York Center
12:48PM 40.3036 -75.1364 227° Southwest 324 373 14,000  Level New York Center
12:49PM 40.2467 -75.2144 226° Southwest 329 379 14,000  Level New York Center
12:50PM 40.2006 -75.3283 242° Southwest 335 386 14,000  Level New York Center
12:51PM 40.1631 -75.4344 245° Southwest 330 380 14,000  Level New York Center
12:52PM 40.0958 -75.4978 216° Southwest 302 348 14,000  Level New York Center
12:53PM 40.0306 -75.5692 220° Southwest 307 353 14,000  Level New York Center
12:54PM 39.9767 -75.6603 232° Southwest 322 371 14,000  Level New York Center
12:55PM 39.9208 -75.7511 231° Southwest 328 377 14,000  Level New York Center
12:56PM 39.8628 -75.8392 229° Southwest 328 377 14,000 -600 Level New York Center
12:58PM 39.7667 -76.0000 232° Southwest 317 365 12,400 -960 Descending Potomac TRACON
12:59PM 39.7167 -76.0667 226° Southwest 311 358 11,500 -780 Descending Potomac TRACON
01:00PM 39.6667 -76.1667 237° Southwest 300 345 11,000 -420 Descending Potomac TRACON
01:01PM 39.6167 -76.2500 232° Southwest 292 336 10,700 -720 Descending Potomac TRACON
01:02PM 39.5667 -76.3167 226° Southwest 265 305 9,700 -1,020 Descending Potomac TRACON
01:03PM 39.5333 -76.4000 243° Southwest 274 315 8,800 -1,020 Descending Potomac TRACON
01:04PM 39.4833 -76.4667 226° Southwest 263 303 7,700 -1,200 Descending Potomac TRACON
01:05PM 39.4167 -76.5167 210° Southwest 277 319 6,500 -1,260 Descending Potomac TRACON
01:06PM 39.3500 -76.5000 169° South 260 299 5,200 -1,320 Descending Potomac TRACON
01:07PM 39.2833 -76.4833 169° South 263 303 3,900 -1,140 Descending Potomac TRACON
01:08PM 39.2167 -76.4833 180° South 239 275 3,000 -900 Descending Potomac TRACON